createdAt,value
2023-05-21T00:00:48.737Z,27.50
2023-05-21T00:02:53.127Z,27.40
2023-05-21T00:04:56.200Z,27.40
2023-05-21T00:06:59.523Z,27.40
2023-05-21T00:09:03.310Z,27.30
2023-05-21T00:11:06.588Z,27.60
2023-05-21T00:13:10.488Z,27.60
2023-05-21T00:15:13.781Z,27.50
2023-05-21T00:17:17.930Z,27.50
2023-05-21T00:19:22.794Z,27.60
2023-05-21T00:21:26.275Z,27.60
2023-05-21T00:23:32.642Z,27.70
2023-05-21T00:25:35.850Z,27.80
2023-05-21T00:27:41.157Z,27.70
2023-05-21T00:29:46.244Z,28.00
2023-05-21T00:31:50.340Z,27.90
2023-05-21T00:33:53.379Z,28.00
2023-05-21T00:35:57.830Z,28.30
2023-05-21T00:38:03.310Z,28.10
2023-05-21T00:40:09.282Z,28.30
2023-05-21T00:42:12.350Z,28.30
2023-05-21T00:44:16.801Z,28.50
2023-05-21T00:46:23.562Z,28.60
2023-05-21T00:48:26.848Z,28.70
2023-05-21T00:50:34.110Z,28.90
2023-05-21T00:52:41.745Z,29.00
2023-05-21T00:54:47.101Z,29.00
2023-05-21T00:56:52.992Z,28.80
2023-05-21T00:58:58.335Z,28.90
2023-05-21T01:01:03.586Z,28.90
2023-05-21T01:03:07.498Z,28.90
2023-05-21T01:05:15.660Z,28.90
2023-05-21T01:07:18.614Z,28.90
2023-05-21T01:09:23.228Z,28.80
2023-05-21T01:11:38.044Z,28.90
2023-05-21T01:13:42.529Z,28.90
2023-05-21T01:15:47.226Z,29.00
2023-05-21T01:17:52.232Z,28.80
2023-05-21T01:19:57.607Z,28.80
2023-05-21T01:22:04.785Z,28.90
2023-05-21T01:24:11.878Z,29.10
2023-05-21T01:26:15.764Z,28.80
2023-05-21T01:28:18.829Z,28.90
2023-05-21T01:30:24.184Z,29.10
2023-05-21T01:32:33.989Z,29.30
2023-05-21T01:34:43.107Z,29.40
2023-05-21T01:36:55.007Z,29.30
2023-05-21T01:39:03.760Z,29.60
2023-05-21T01:41:14.841Z,29.70
2023-05-21T01:43:21.525Z,29.90
2023-05-21T01:45:27.983Z,29.80
2023-05-21T01:47:33.087Z,29.90
2023-05-21T01:49:36.521Z,30.00
2023-05-21T01:51:40.116Z,30.30
2023-05-21T01:53:43.270Z,30.40
2023-05-21T01:55:47.211Z,30.40
2023-05-21T01:57:54.371Z,30.50
2023-05-21T01:59:58.727Z,30.70
2023-05-21T02:02:01.795Z,30.60
2023-05-21T02:04:05.061Z,30.80
2023-05-21T02:06:10.563Z,30.90
2023-05-21T02:08:16.340Z,31.10
2023-05-21T02:10:19.526Z,31.10
2023-05-21T02:12:24.351Z,31.10
2023-05-21T02:14:33.657Z,31.20
2023-05-21T02:16:38.574Z,31.50
2023-05-21T02:18:43.358Z,31.40
2023-05-21T02:20:46.305Z,31.40
2023-05-21T02:22:50.306Z,31.40
2023-05-21T02:24:55.195Z,31.30
2023-05-21T02:26:58.559Z,31.60
2023-05-21T02:29:01.722Z,31.50
2023-05-21T02:31:07.165Z,31.50
2023-05-21T02:33:15.418Z,31.60
2023-05-21T02:35:18.514Z,31.50
2023-05-21T02:37:21.862Z,31.50
2023-05-21T02:39:25.108Z,31.60
2023-05-21T02:41:28.350Z,31.70
2023-05-21T02:43:31.251Z,31.60
2023-05-21T02:45:34.521Z,31.80
2023-05-21T02:47:39.301Z,32.10
2023-05-21T02:49:45.987Z,32.10
2023-05-21T02:51:49.431Z,32.20
2023-05-21T02:53:55.326Z,32.10
2023-05-21T02:55:58.290Z,32.30
2023-05-21T02:58:01.508Z,32.40
2023-05-21T03:00:06.225Z,32.50
2023-05-21T03:02:10.024Z,32.70
2023-05-21T03:04:14.377Z,32.70
2023-05-21T03:06:18.603Z,32.80
2023-05-21T03:08:24.684Z,33.00
2023-05-21T03:10:30.579Z,32.80
2023-05-21T03:12:33.498Z,33.00
2023-05-21T03:14:36.533Z,33.00
2023-05-21T03:16:41.778Z,33.00
2023-05-21T03:18:47.927Z,33.00
2023-05-21T03:20:52.322Z,32.80
2023-05-21T03:22:55.874Z,33.00
2023-05-21T03:24:58.856Z,33.00
2023-05-21T03:27:06.243Z,33.00
2023-05-21T03:29:09.268Z,33.00
2023-05-21T03:31:12.530Z,33.00
2023-05-21T03:33:21.254Z,33.00
2023-05-21T03:35:24.995Z,33.00
2023-05-21T03:37:37.445Z,33.40
2023-05-21T03:39:41.833Z,33.00
2023-05-21T03:41:48.988Z,33.00
2023-05-21T03:43:59.118Z,33.00
2023-05-21T03:46:07.246Z,33.00
2023-05-21T03:48:26.749Z,32.80
2023-05-21T03:50:29.787Z,32.60
2023-05-21T03:52:34.265Z,32.80
2023-05-21T03:54:40.511Z,32.90
2023-05-21T03:56:47.401Z,33.00
2023-05-21T03:58:54.905Z,33.00
2023-05-21T04:01:00.474Z,33.00
2023-05-21T04:03:06.458Z,33.00
2023-05-21T04:05:10.354Z,33.00
2023-05-21T04:07:19.100Z,33.00
2023-05-21T04:09:23.578Z,33.00
2023-05-21T04:11:28.337Z,33.10
2023-05-21T04:13:34.124Z,33.00
2023-05-21T04:15:41.245Z,33.00
2023-05-21T04:17:45.380Z,33.30
2023-05-21T04:19:50.660Z,33.30
2023-05-21T04:21:53.624Z,33.30
2023-05-21T04:23:57.668Z,33.40
2023-05-21T04:26:16.254Z,33.50
2023-05-21T04:28:21.195Z,33.60
2023-05-21T04:30:25.127Z,33.50
2023-05-21T04:32:28.548Z,33.50
2023-05-21T04:34:33.827Z,33.60
2023-05-21T04:36:36.826Z,33.80
2023-05-21T04:38:41.765Z,34.00
2023-05-21T04:40:50.721Z,33.70
2023-05-21T04:42:55.417Z,34.00
2023-05-21T04:45:03.237Z,33.80
2023-05-21T04:47:10.413Z,34.00
2023-05-21T04:49:22.806Z,34.00
2023-05-21T04:51:29.965Z,34.00
2023-05-21T04:53:33.912Z,34.00
2023-05-21T04:55:40.193Z,34.00
2023-05-21T04:57:45.826Z,34.40
2023-05-21T04:59:52.786Z,34.20
2023-05-21T05:01:55.765Z,34.50
2023-05-21T05:04:01.936Z,34.10
2023-05-21T05:06:05.524Z,34.10
2023-05-21T05:08:08.700Z,34.40
2023-05-21T05:10:11.799Z,34.30
2023-05-21T05:12:15.003Z,34.20
2023-05-21T05:14:20.359Z,34.40
2023-05-21T05:16:26.083Z,34.40
2023-05-21T05:18:31.991Z,34.30
2023-05-21T05:20:35.206Z,34.40
2023-05-21T05:22:41.207Z,34.30
2023-05-21T05:24:44.259Z,34.40
2023-05-21T05:26:47.462Z,34.50
2023-05-21T05:28:50.699Z,34.30
2023-05-21T05:30:54.810Z,34.50
2023-05-21T05:33:02.315Z,34.50
2023-05-21T05:35:09.455Z,34.50
2023-05-21T05:37:14.307Z,34.60
2023-05-21T05:39:18.671Z,34.50
2023-05-21T05:41:27.133Z,34.60
2023-05-21T05:43:35.149Z,34.60
2023-05-21T05:45:42.714Z,34.40
2023-05-21T05:47:57.150Z,34.50
2023-05-21T05:50:07.469Z,34.50
2023-05-21T05:52:10.821Z,34.50
2023-05-21T05:54:19.433Z,34.40
2023-05-21T05:56:24.954Z,34.50
2023-05-21T05:58:27.939Z,34.50
2023-05-21T06:00:43.166Z,34.40
2023-05-21T06:02:46.277Z,34.30
2023-05-21T06:04:49.224Z,34.20
2023-05-21T06:06:54.437Z,34.30
2023-05-21T06:08:57.437Z,34.40
2023-05-21T06:11:03.055Z,34.40
2023-05-21T06:13:06.089Z,34.70
2023-05-21T06:15:11.246Z,34.50
2023-05-21T06:17:16.192Z,34.50
2023-05-21T06:19:21.288Z,34.30
2023-05-21T06:21:24.389Z,34.50
2023-05-21T06:23:29.044Z,34.50
2023-05-21T06:25:32.385Z,34.30
2023-05-21T06:27:37.529Z,34.30
2023-05-21T06:29:44.608Z,34.20
2023-05-21T06:31:48.794Z,34.40
2023-05-21T06:33:51.909Z,34.50
2023-05-21T06:35:56.986Z,34.20
2023-05-21T06:38:00.202Z,34.20
2023-05-21T06:40:05.299Z,34.30
2023-05-21T06:42:08.684Z,34.10
2023-05-21T06:44:23.915Z,34.30
2023-05-21T06:46:43.606Z,34.40
2023-05-21T06:48:49.772Z,34.60
2023-05-21T06:50:55.538Z,34.60
2023-05-21T06:52:58.475Z,34.70
2023-05-21T06:55:01.398Z,34.80
2023-05-21T06:57:12.572Z,34.40
2023-05-21T06:59:22.583Z,34.50
2023-05-21T07:01:25.638Z,34.20
2023-05-21T07:03:29.080Z,34.30
2023-05-21T07:05:32.470Z,34.50
2023-05-21T07:07:38.479Z,34.60
2023-05-21T07:09:41.626Z,34.20
2023-05-21T07:11:45.186Z,34.20
2023-05-21T07:13:53.612Z,34.20
2023-05-21T07:15:56.637Z,34.60
2023-05-21T07:18:01.341Z,34.50
2023-05-21T07:20:06.476Z,34.70
2023-05-21T07:22:09.516Z,35.20
2023-05-21T07:24:15.772Z,35.00
2023-05-21T07:26:18.870Z,35.10
2023-05-21T07:28:21.934Z,34.80
2023-05-21T07:30:26.567Z,34.70
2023-05-21T07:32:30.437Z,34.80
2023-05-21T07:34:36.375Z,34.90
2023-05-21T07:36:47.746Z,35.00
2023-05-21T07:38:51.224Z,34.80
2023-05-21T07:40:57.106Z,34.60
2023-05-21T07:43:02.697Z,34.70
2023-05-21T07:45:08.669Z,33.80
2023-05-21T07:47:17.904Z,33.80
2023-05-21T07:49:24.392Z,33.90
2023-05-21T07:51:28.449Z,33.80
2023-05-21T07:53:34.394Z,33.90
2023-05-21T07:55:47.437Z,33.30
2023-05-21T07:57:54.142Z,33.30
2023-05-21T08:00:02.752Z,33.30
2023-05-21T08:02:09.422Z,33.00
2023-05-21T08:04:22.928Z,32.20
2023-05-21T08:06:26.873Z,32.50
2023-05-21T08:08:31.681Z,31.90
2023-05-21T08:10:37.071Z,31.90
2023-05-21T08:12:40.145Z,31.50
2023-05-21T08:14:44.003Z,31.30
2023-05-21T08:16:50.488Z,30.80
2023-05-21T08:18:53.672Z,30.80
2023-05-21T08:20:58.637Z,31.10
2023-05-21T08:23:01.894Z,30.00
2023-05-21T08:25:12.566Z,29.70
2023-05-21T08:27:16.226Z,29.40
2023-05-21T08:29:19.321Z,29.60
2023-05-21T08:31:22.803Z,29.30
2023-05-21T08:33:34.079Z,29.30
2023-05-21T08:35:37.474Z,29.50
2023-05-21T08:38:05.216Z,29.60
2023-05-21T08:40:21.414Z,29.50
2023-05-21T08:42:37.278Z,29.30
2023-05-21T08:44:49.653Z,29.10
2023-05-21T08:46:52.962Z,28.90
2023-05-21T08:48:56.973Z,29.10
2023-05-21T08:51:01.885Z,28.90
2023-05-21T08:53:23.906Z,28.90
2023-05-21T08:55:33.413Z,29.00
2023-05-21T08:57:37.188Z,28.50
2023-05-21T08:59:44.190Z,28.40
2023-05-21T09:01:57.496Z,27.70
2023-05-21T09:04:20.095Z,27.80
2023-05-21T09:06:33.955Z,28.10
2023-05-21T09:08:44.712Z,27.90
2023-05-21T09:11:10.997Z,27.70
2023-05-21T09:13:22.549Z,28.30
2023-05-21T09:15:29.556Z,27.60
2023-05-21T09:17:32.843Z,27.20
2023-05-21T09:20:16.784Z,27.60
2023-05-21T09:22:31.074Z,27.30
2023-05-21T09:24:44.289Z,27.20
2023-05-21T09:26:47.296Z,27.00
2023-05-21T09:28:50.540Z,27.10
2023-05-21T09:31:04.162Z,27.10
2023-05-21T09:33:08.197Z,27.30
2023-05-21T09:35:13.225Z,27.30
2023-05-21T09:37:27.153Z,26.60
2023-05-21T09:39:36.108Z,26.30
2023-05-21T09:41:46.857Z,26.20
2023-05-21T09:43:52.270Z,26.80
2023-05-21T09:46:01.272Z,26.80
2023-05-21T09:48:07.389Z,26.80
2023-05-21T09:50:14.155Z,26.80
2023-05-21T09:52:25.288Z,26.60
2023-05-21T09:54:33.659Z,25.60
2023-05-21T09:56:36.861Z,25.60
2023-05-21T09:58:41.329Z,25.90
2023-05-21T10:00:44.365Z,25.30
2023-05-21T10:02:50.012Z,25.70
2023-05-21T10:04:54.317Z,25.80
2023-05-21T10:06:59.286Z,25.60
2023-05-21T10:09:07.250Z,25.80
2023-05-21T10:11:11.106Z,25.50
2023-05-21T10:13:19.168Z,25.20
2023-05-21T10:15:28.192Z,25.20
2023-05-21T10:17:32.099Z,25.50
2023-05-21T10:19:36.380Z,25.40
2023-05-21T10:21:40.866Z,25.20
2023-05-21T10:23:46.041Z,25.40
2023-05-21T10:25:52.917Z,25.50
2023-05-21T10:27:56.899Z,24.40
2023-05-21T10:30:00.867Z,24.00
2023-05-21T10:32:06.660Z,24.10
2023-05-21T10:34:11.300Z,23.90
2023-05-21T10:36:17.846Z,24.40
2023-05-21T10:38:24.544Z,24.90
2023-05-21T10:40:27.444Z,24.60
2023-05-21T10:43:03.425Z,24.60
2023-05-21T10:45:24.564Z,24.50
2023-05-21T10:47:57.513Z,24.10
2023-05-21T10:50:35.388Z,23.40
2023-05-21T10:52:53.257Z,23.20
2023-05-21T10:55:08.261Z,23.20
2023-05-21T10:57:22.047Z,23.60
2023-05-21T10:59:41.047Z,24.20
2023-05-21T11:01:45.188Z,23.70
2023-05-21T11:03:50.508Z,24.10
2023-05-21T11:05:55.795Z,23.40
2023-05-21T11:08:01.595Z,23.60
2023-05-21T11:10:33.780Z,23.00
2023-05-21T11:13:08.717Z,23.60
2023-05-21T11:15:17.155Z,22.80
2023-05-21T11:17:38.389Z,22.90
2023-05-21T11:19:43.857Z,23.40
2023-05-21T11:21:52.155Z,22.90
2023-05-21T11:23:56.576Z,22.00
2023-05-21T11:26:02.521Z,22.10
2023-05-21T11:28:09.312Z,22.10
2023-05-21T11:30:19.852Z,22.90
2023-05-21T11:32:25.185Z,22.80
2023-05-21T11:34:29.137Z,22.10
2023-05-21T11:36:36.221Z,21.40
2023-05-21T11:38:40.783Z,19.90
2023-05-21T11:40:54.602Z,19.70
2023-05-21T11:42:59.989Z,20.70
2023-05-21T11:45:05.767Z,20.30
2023-05-21T11:47:10.376Z,20.50
2023-05-21T11:49:15.461Z,20.90
2023-05-21T11:51:18.769Z,20.10
2023-05-21T11:53:23.235Z,20.00
2023-05-21T11:55:26.785Z,20.30
2023-05-21T11:57:31.811Z,19.60
2023-05-21T11:59:35.085Z,19.40
2023-05-21T12:01:39.293Z,19.60
2023-05-21T12:03:44.599Z,20.00
2023-05-21T12:05:50.734Z,20.10
2023-05-21T12:07:54.767Z,18.40
2023-05-21T12:10:01.331Z,18.90
2023-05-21T12:12:05.834Z,18.50
2023-05-21T12:14:15.138Z,19.30
2023-05-21T12:16:18.396Z,18.60
2023-05-21T12:18:22.195Z,17.60
2023-05-21T12:20:31.138Z,17.30
2023-05-21T12:22:34.075Z,17.30
2023-05-21T12:24:40.558Z,17.30
2023-05-21T12:26:47.987Z,16.00
2023-05-21T12:28:51.141Z,15.80
2023-05-21T12:30:54.488Z,16.40
2023-05-21T12:33:03.096Z,16.80
2023-05-21T12:35:06.943Z,17.20
2023-05-21T12:37:10.181Z,17.30
2023-05-21T12:39:13.339Z,17.00
2023-05-21T12:41:17.213Z,16.60
2023-05-21T12:43:27.033Z,16.10
2023-05-21T12:45:31.940Z,16.30
2023-05-21T12:47:35.581Z,16.50
2023-05-21T12:49:42.627Z,17.10
2023-05-21T12:51:46.682Z,16.90
2023-05-21T12:53:49.650Z,16.30
2023-05-21T12:55:56.253Z,15.50
2023-05-21T12:58:08.159Z,15.50
2023-05-21T13:00:14.297Z,16.20
2023-05-21T13:02:19.670Z,16.40
2023-05-21T13:04:24.672Z,17.10
2023-05-21T13:06:27.761Z,16.90
2023-05-21T13:08:34.381Z,16.60
2023-05-21T13:10:38.916Z,16.60
2023-05-21T13:12:44.108Z,16.80
2023-05-21T13:14:50.299Z,15.10
2023-05-21T13:16:54.747Z,15.90
2023-05-21T13:18:57.927Z,16.00
2023-05-21T13:21:00.927Z,15.20
2023-05-21T13:23:06.246Z,14.70
2023-05-21T13:25:11.062Z,14.20
2023-05-21T13:27:15.935Z,15.10
2023-05-21T13:29:18.890Z,14.90
2023-05-21T13:31:34.952Z,14.90
2023-05-21T13:33:43.126Z,14.80
2023-05-21T13:35:51.076Z,14.70
2023-05-21T13:37:57.441Z,14.30
2023-05-21T13:40:00.853Z,15.30
2023-05-21T13:42:05.796Z,15.00
2023-05-21T13:44:08.769Z,15.40
2023-05-21T13:46:11.951Z,15.50
2023-05-21T13:48:15.075Z,15.50
2023-05-21T13:50:20.681Z,14.70
2023-05-21T13:52:23.617Z,14.60
2023-05-21T13:54:26.689Z,14.90
2023-05-21T13:56:33.853Z,14.60
2023-05-21T13:58:39.964Z,14.60
2023-05-21T14:00:43.027Z,14.70
2023-05-21T14:02:47.614Z,15.60
2023-05-21T14:04:50.838Z,15.10
2023-05-21T14:06:55.540Z,15.00
2023-05-21T14:08:58.619Z,15.00
2023-05-21T14:11:05.382Z,15.40
2023-05-21T14:13:18.993Z,14.60
2023-05-21T14:15:24.365Z,15.50
2023-05-21T14:17:27.371Z,14.70
2023-05-21T14:19:33.164Z,14.60
2023-05-21T14:21:36.252Z,15.40
2023-05-21T14:23:48.302Z,15.20
2023-05-21T14:25:51.260Z,15.70
2023-05-21T14:27:54.215Z,15.10
2023-05-21T14:30:00.160Z,15.20
2023-05-21T14:32:03.154Z,15.50
2023-05-21T14:34:06.939Z,15.80
2023-05-21T14:36:09.883Z,15.60
2023-05-21T14:38:14.984Z,15.80
2023-05-21T14:40:22.099Z,15.90
2023-05-21T14:42:27.745Z,15.50
2023-05-21T14:44:34.179Z,16.00
2023-05-21T14:46:37.566Z,16.60
2023-05-21T14:48:46.629Z,16.30
2023-05-21T14:50:49.985Z,16.20
2023-05-21T14:52:57.223Z,16.00
2023-05-21T14:55:00.398Z,15.90
2023-05-21T14:57:05.268Z,16.20
2023-05-21T14:59:08.429Z,16.60
2023-05-21T15:01:15.128Z,15.90
2023-05-21T15:03:18.225Z,16.40
2023-05-21T15:05:21.631Z,16.60
2023-05-21T15:07:24.602Z,17.60
2023-05-21T15:09:27.546Z,17.00
2023-05-21T15:11:33.721Z,17.20
2023-05-21T15:13:46.377Z,17.30
2023-05-21T15:15:49.919Z,17.60
2023-05-21T15:17:52.974Z,17.70
2023-05-21T15:19:58.651Z,17.40
2023-05-21T15:22:02.811Z,17.60
2023-05-21T15:24:06.724Z,17.50
2023-05-21T15:26:10.703Z,18.10
2023-05-21T15:28:18.141Z,17.50
2023-05-21T15:30:31.918Z,17.30
2023-05-21T15:32:35.498Z,17.80
2023-05-21T15:34:43.149Z,17.30
2023-05-21T15:37:08.576Z,16.50
2023-05-21T15:39:18.495Z,16.40
2023-05-21T15:41:24.163Z,16.70
2023-05-21T15:43:30.710Z,17.50
2023-05-21T15:45:39.471Z,17.60
2023-05-21T15:47:44.728Z,17.00
2023-05-21T15:49:49.731Z,16.20
2023-05-21T15:52:09.394Z,16.30
2023-05-21T15:54:15.718Z,16.50
2023-05-21T15:56:18.696Z,16.50
2023-05-21T15:58:21.779Z,16.80
2023-05-21T16:00:24.791Z,17.50
2023-05-21T16:02:29.092Z,17.10
2023-05-21T16:04:36.388Z,17.00
2023-05-21T16:06:39.297Z,17.30
2023-05-21T16:08:44.207Z,17.60
2023-05-21T16:10:47.470Z,17.80
2023-05-21T16:12:55.858Z,17.10
2023-05-21T16:14:58.759Z,17.10
2023-05-21T16:17:01.706Z,17.20
2023-05-21T16:19:06.031Z,17.20
2023-05-21T16:21:14.525Z,17.20
2023-05-21T16:23:17.576Z,17.30
2023-05-21T16:25:20.807Z,17.30
2023-05-21T16:27:25.834Z,17.60
2023-05-21T16:29:29.701Z,17.10
2023-05-21T16:31:34.910Z,17.50
2023-05-21T16:33:38.037Z,17.60
2023-05-21T16:35:42.293Z,17.50
2023-05-21T16:37:47.719Z,17.30
2023-05-21T16:39:53.464Z,17.20
2023-05-21T16:41:59.786Z,17.70
2023-05-21T16:44:02.956Z,17.90
2023-05-21T16:46:10.475Z,18.40
2023-05-21T16:48:16.300Z,18.00
2023-05-21T16:50:20.636Z,18.20
2023-05-21T16:52:27.479Z,18.20
2023-05-21T16:54:33.143Z,18.60
2023-05-21T16:56:36.315Z,18.80
2023-05-21T16:58:42.469Z,18.90
2023-05-21T17:00:49.059Z,18.70
2023-05-21T17:03:04.064Z,18.70
2023-05-21T17:05:10.927Z,18.80
2023-05-21T17:07:14.178Z,18.90
2023-05-21T17:09:24.263Z,18.80
2023-05-21T17:11:27.257Z,18.90
2023-05-21T17:13:30.199Z,18.90
2023-05-21T17:15:36.683Z,19.20
2023-05-21T17:17:39.863Z,19.30
2023-05-21T17:19:44.759Z,19.40
2023-05-21T17:21:47.783Z,19.40
2023-05-21T17:23:50.764Z,19.70
2023-05-21T17:25:55.164Z,19.70
2023-05-21T17:28:00.944Z,19.90
2023-05-21T17:30:05.266Z,20.00
2023-05-21T17:32:08.623Z,19.90
2023-05-21T17:34:11.865Z,19.90
2023-05-21T17:36:19.230Z,19.80
2023-05-21T17:38:24.194Z,19.90
2023-05-21T17:40:27.204Z,19.90
2023-05-21T17:42:33.608Z,20.00
2023-05-21T17:44:36.500Z,20.10
2023-05-21T17:46:42.356Z,19.90
2023-05-21T17:48:45.498Z,19.90
2023-05-21T17:50:48.659Z,20.00
2023-05-21T17:52:51.578Z,20.00
2023-05-21T17:54:54.555Z,20.00
2023-05-21T17:56:59.108Z,20.10
2023-05-21T17:59:03.390Z,20.10
2023-05-21T18:01:06.579Z,20.20
2023-05-21T18:03:11.056Z,20.40
2023-05-21T18:05:14.034Z,20.40
2023-05-21T18:07:17.410Z,20.30
2023-05-21T18:09:20.433Z,20.30
2023-05-21T18:11:26.159Z,20.50
2023-05-21T18:13:29.778Z,20.60
2023-05-21T18:15:34.359Z,20.70
2023-05-21T18:17:37.440Z,20.90
2023-05-21T18:19:40.600Z,21.10
2023-05-21T18:21:43.543Z,21.00
2023-05-21T18:23:47.696Z,21.30
2023-05-21T18:25:50.846Z,22.20
2023-05-21T18:27:53.751Z,21.60
2023-05-21T18:29:56.868Z,21.70
2023-05-21T18:32:03.305Z,21.60
2023-05-21T18:34:06.327Z,21.20
2023-05-21T18:36:09.425Z,21.30
2023-05-21T18:38:14.149Z,21.40
2023-05-21T18:40:17.453Z,21.50
2023-05-21T18:42:22.272Z,21.40
2023-05-21T18:44:25.260Z,21.40
2023-05-21T18:46:28.349Z,21.00
2023-05-21T18:48:32.930Z,21.70
2023-05-21T18:50:38.344Z,21.10
2023-05-21T18:52:41.378Z,21.10
2023-05-21T18:54:46.449Z,21.10
2023-05-21T18:56:49.359Z,21.30
2023-05-21T18:58:52.274Z,21.40
2023-05-21T19:00:55.399Z,21.30
2023-05-21T19:02:58.395Z,21.30
2023-05-21T19:05:02.885Z,21.30
2023-05-21T19:07:06.247Z,21.20
2023-05-21T19:09:11.482Z,21.20
2023-05-21T19:11:19.338Z,21.20
2023-05-21T19:13:22.300Z,21.30
2023-05-21T19:15:25.203Z,21.10
2023-05-21T19:17:28.301Z,21.10
2023-05-21T19:19:31.397Z,21.10
2023-05-21T19:21:38.857Z,21.10
2023-05-21T19:23:51.983Z,21.00
2023-05-21T19:25:56.445Z,21.20
2023-05-21T19:28:02.170Z,21.50
2023-05-21T19:30:08.973Z,21.50
2023-05-21T19:32:15.760Z,21.40
2023-05-21T19:34:18.777Z,21.40
2023-05-21T19:36:22.437Z,21.40
2023-05-21T19:38:28.098Z,21.70
2023-05-21T19:40:39.770Z,21.70
2023-05-21T19:42:44.726Z,21.90
2023-05-21T19:44:47.689Z,21.90
2023-05-21T19:46:56.372Z,21.90
2023-05-21T19:48:59.321Z,22.00
2023-05-21T19:51:02.805Z,22.10
2023-05-21T19:53:05.876Z,22.20
2023-05-21T19:55:10.775Z,22.60
2023-05-21T19:57:14.307Z,22.70
2023-05-21T19:59:19.913Z,22.80
2023-05-21T20:01:23.383Z,22.90
2023-05-21T20:03:28.595Z,23.00
2023-05-21T20:05:31.573Z,23.20
2023-05-21T20:07:34.510Z,23.20
2023-05-21T20:09:37.489Z,23.40
2023-05-21T20:11:43.087Z,23.60
2023-05-21T20:13:50.102Z,23.70
2023-05-21T20:15:53.102Z,23.80
2023-05-21T20:17:59.014Z,23.80
2023-05-21T20:20:06.505Z,24.10
2023-05-21T20:22:09.616Z,24.00
2023-05-21T20:24:12.612Z,24.10
2023-05-21T20:26:18.723Z,24.30
2023-05-21T20:28:23.287Z,24.30
2023-05-21T20:30:32.914Z,24.50
2023-05-21T20:32:35.962Z,24.60
2023-05-21T20:34:54.443Z,24.50
2023-05-21T20:37:04.210Z,24.60
2023-05-21T20:39:08.953Z,24.80
2023-05-21T20:41:15.555Z,24.90
2023-05-21T20:43:20.345Z,24.80
2023-05-21T20:45:33.581Z,25.10
2023-05-21T20:47:39.422Z,25.00
2023-05-21T20:49:44.220Z,25.00
2023-05-21T20:51:47.660Z,25.10
2023-05-21T20:53:52.861Z,25.30
2023-05-21T20:55:55.935Z,25.10
2023-05-21T20:57:59.035Z,25.20
2023-05-21T21:00:04.589Z,25.40
2023-05-21T21:02:13.051Z,25.60
2023-05-21T21:04:16.117Z,26.00
2023-05-21T21:06:19.966Z,26.40
2023-05-21T21:08:23.043Z,26.00
2023-05-21T21:10:32.190Z,26.10
2023-05-21T21:12:35.970Z,26.30
2023-05-21T21:14:38.949Z,26.20
2023-05-21T21:16:51.736Z,26.30
2023-05-21T21:19:07.553Z,26.40
2023-05-21T21:21:12.022Z,26.90
2023-05-21T21:23:21.179Z,26.70
2023-05-21T21:25:25.682Z,27.30
2023-05-21T21:27:31.192Z,26.80
2023-05-21T21:29:44.793Z,27.00
2023-05-21T21:31:48.072Z,27.00
2023-05-21T21:33:53.285Z,27.00
2023-05-21T21:36:04.197Z,27.30
2023-05-21T21:38:08.614Z,27.50
2023-05-21T21:40:12.907Z,27.30
2023-05-21T21:42:19.238Z,27.60
2023-05-21T21:44:23.981Z,27.70
2023-05-21T21:46:31.067Z,27.80
2023-05-21T21:48:39.256Z,27.80
2023-05-21T21:50:44.235Z,27.70
2023-05-21T21:52:49.093Z,27.70
2023-05-21T21:54:54.182Z,27.70
2023-05-21T21:56:57.277Z,27.70
2023-05-21T21:59:00.868Z,27.70
2023-05-21T22:01:08.274Z,27.70
2023-05-21T22:03:12.987Z,27.70
2023-05-21T22:05:17.431Z,27.60
2023-05-21T22:07:26.469Z,27.80
2023-05-21T22:09:32.601Z,28.00
2023-05-21T22:11:36.376Z,28.30
2023-05-21T22:13:41.622Z,28.10
2023-05-21T22:15:46.507Z,28.20
2023-05-21T22:17:51.823Z,28.30
2023-05-21T22:20:01.261Z,28.40
2023-05-21T22:22:07.609Z,28.50
2023-05-21T22:24:20.604Z,28.40
2023-05-21T22:26:39.789Z,28.40
2023-05-21T22:28:43.070Z,28.40
2023-05-21T22:30:52.025Z,28.40
2023-05-21T22:32:58.120Z,28.40
2023-05-21T22:35:04.482Z,28.50
2023-05-21T22:37:11.162Z,28.40
2023-05-21T22:39:14.275Z,28.50
2023-05-21T22:41:17.735Z,28.50
2023-05-21T22:43:24.713Z,28.60
2023-05-21T22:45:28.478Z,28.70
2023-05-21T22:47:41.929Z,28.60
2023-05-21T22:49:45.497Z,29.10
2023-05-21T22:51:56.069Z,28.60
2023-05-21T22:53:59.149Z,28.60
2023-05-21T22:56:05.636Z,28.60
2023-05-21T22:58:10.072Z,28.60
2023-05-21T23:00:18.989Z,28.70
2023-05-21T23:02:22.298Z,29.10
2023-05-21T23:04:35.803Z,29.00
2023-05-21T23:06:49.101Z,29.10
2023-05-21T23:08:53.367Z,29.20
2023-05-21T23:10:56.419Z,29.40
2023-05-21T23:13:04.038Z,29.50
2023-05-21T23:15:10.941Z,30.00
2023-05-21T23:17:15.347Z,30.00
2023-05-21T23:19:21.128Z,30.00
2023-05-21T23:21:28.120Z,30.00
2023-05-21T23:23:32.464Z,30.40
2023-05-21T23:25:42.493Z,30.00
2023-05-21T23:27:45.461Z,30.10
2023-05-21T23:29:48.584Z,30.30
2023-05-21T23:31:54.983Z,30.40
2023-05-21T23:34:06.110Z,30.60
2023-05-21T23:36:11.192Z,30.80
2023-05-21T23:38:14.498Z,30.60
2023-05-21T23:40:17.529Z,30.70
2023-05-21T23:42:21.277Z,30.80
2023-05-21T23:44:25.708Z,30.90
2023-05-21T23:46:30.601Z,31.00
2023-05-21T23:48:36.047Z,31.30
2023-05-21T23:50:40.601Z,31.50
2023-05-21T23:52:43.778Z,31.40
2023-05-21T23:54:48.995Z,31.40
2023-05-21T23:56:51.953Z,31.60
2023-05-21T23:58:54.863Z,31.70
